Time;durP1;ratioP1;P1;durP2;ratioP2;P2;SDS_P1;SDS_P2;PMS_P1;PMS_P2;Temp;Humidity;BMP_temperature;BMP_pressure;BME280_temperature;BME280_humidity;BME280_pressure;Samples;Min_cycle;Max_cycle;Signal;HPM_P1;HPM_P2
2022/04/12 00:01:37;;;;;;;5.70;5.05;;;;;;;9.44;100.00;100970.81;5231344;28;20051;-58
2022/04/12 00:04:07;;;;;;;6.18;5.40;;;;;;;9.39;100.00;100968.03;5231485;28;20025;-58
2022/04/12 00:06:38;;;;;;;5.85;5.38;;;;;;;9.24;100.00;100936.25;5231942;28;20024;-59
2022/04/12 00:09:08;;;;;;;5.03;4.72;;;;;;;9.29;100.00;100946.28;5231152;28;20119;-58
2022/04/12 00:11:39;;;;;;;11.43;5.82;;;;;;;9.33;100.00;100969.81;5231428;28;20021;-60
2022/04/12 00:14:10;;;;;;;6.03;5.55;;;;;;;9.31;100.00;100965.72;5230732;28;20063;-58
2022/04/12 00:16:41;;;;;;;5.18;4.78;;;;;;;9.15;100.00;100956.59;5230596;28;20060;-60
2022/04/12 00:19:13;;;;;;;5.32;4.93;;;;;;;9.04;100.00;100949.38;5230250;28;20123;-59
2022/04/12 00:21:43;;;;;;;4.65;3.97;;;;;;;9.07;100.00;100978.53;5229924;28;20546;-59
2022/04/12 00:24:13;;;;;;;5.70;5.30;;;;;;;9.00;100.00;100973.28;5229649;28;20234;-59
2022/04/12 00:26:44;;;;;;;5.35;4.93;;;;;;;8.95;100.00;100978.59;5229817;28;20039;-58
2022/04/12 00:29:14;;;;;;;5.97;5.57;;;;;;;8.70;100.00;100953.88;5229714;28;20032;-60
2022/04/12 00:31:45;;;;;;;5.55;5.15;;;;;;;8.46;100.00;100931.66;5247490;28;20124;-58
2022/04/12 00:34:15;;;;;;;6.38;5.60;;;;;;;8.53;100.00;100937.72;5229369;28;20067;-57
2022/04/12 00:36:45;;;;;;;5.55;5.15;;;;;;;8.67;100.00;100951.69;5247655;28;20017;-57
2022/04/12 00:39:16;;;;;;;5.68;4.97;;;;;;;8.71;100.00;100964.41;5229510;28;20027;-58
2022/04/12 00:41:46;;;;;;;6.03;5.63;;;;;;;8.66;100.00;100953.56;5247365;28;20401;-60
2022/04/12 00:44:17;;;;;;;5.45;5.05;;;;;;;8.47;100.00;100922.50;5229161;28;20075;-59
2022/04/12 00:46:47;;;;;;;6.00;5.38;;;;;;;8.58;100.00;100948.56;5229286;28;20032;-58
2022/04/12 00:49:18;;;;;;;5.43;5.18;;;;;;;8.62;100.00;100941.66;5229513;28;20024;-60
2022/04/12 00:51:48;;;;;;;5.80;5.45;;;;;;;8.53;100.00;100916.19;5229232;28;20440;-59
2022/04/12 00:54:19;;;;;;;6.43;5.82;;;;;;;8.65;100.00;100941.19;5228915;28;20024;-60
2022/04/12 00:56:51;;;;;;;5.65;5.15;;;;;;;8.65;100.00;100937.66;5229108;28;20055;-60
2022/04/12 00:59:23;;;;;;;5.63;5.28;;;;;;;8.65;100.00;100933.09;5246716;28;20029;-58
2022/04/12 01:01:53;;;;;;;7.97;5.40;;;;;;;8.70;100.00;100932.34;5228911;28;20386;-60
2022/04/12 01:04:24;;;;;;;6.18;5.75;;;;;;;8.73;100.00;100931.88;5228855;28;20024;-59
2022/04/12 01:06:55;;;;;;;5.80;5.30;;;;;;;8.55;100.00;100906.00;5228917;28;20032;-60
2022/04/12 01:09:27;;;;;;;6.32;5.70;;;;;;;8.66;100.00;100934.72;5229106;28;20039;-58
2022/04/12 01:11:57;;;;;;;5.97;5.57;;;;;;;8.49;100.00;100925.78;5245394;28;20038;-60
2022/04/12 01:14:28;;;;;;;6.00;5.60;;;;;;;8.53;100.00;100943.09;5246762;28;20020;-60
2022/04/12 01:17:06;;;;;;;5.40;5.03;;;;;;;8.46;100.00;100935.16;5246676;28;20028;-60
2022/04/12 01:19:36;;;;;;;5.68;5.32;;;;;;;8.48;100.00;100943.00;5228825;28;20113;-58
2022/04/12 01:22:11;;;;;;;6.32;5.82;;;;;;;8.39;100.00;100921.00;5228654;28;20060;-61
2022/04/12 01:24:42;;;;;;;5.72;5.22;;;;;;;8.55;100.00;100934.78;5228468;28;20123;-60
2022/04/12 01:27:13;;;;;;;5.53;5.13;;;;;;;8.51;100.00;100931.75;5228639;28;20514;-58
2022/04/12 01:29:43;;;;;;;6.82;6.40;;;;;;;8.58;100.00;100931.59;5246551;28;20146;-60
2022/04/12 01:32:14;;;;;;;6.30;5.70;;;;;;;8.62;100.00;100935.47;5228580;28;20028;-60
2022/04/12 01:34:44;;;;;;;5.55;5.15;;;;;;;8.55;100.00;100924.84;5228189;28;20105;-60
2022/04/12 01:37:14;;;;;;;8.30;6.50;;;;;;;8.61;100.00;100939.22;5228612;28;20526;-60
2022/04/12 01:39:45;;;;;;;6.10;5.75;;;;;;;8.58;100.00;100940.50;5228483;28;20036;-59
2022/04/12 01:42:15;;;;;;;5.65;5.25;;;;;;;8.52;100.00;100935.25;5228464;28;20032;-59
2022/04/12 01:44:46;;;;;;;6.57;5.28;;;;;;;8.47;100.00;100938.66;5228180;28;20094;-60
2022/04/12 01:47:17;;;;;;;5.20;4.80;;;;;;;8.40;100.00;100921.84;5228267;28;20086;-59
2022/04/12 01:49:48;;;;;;;6.35;5.15;;;;;;;8.43;100.00;100926.75;5228353;28;20036;-58
2022/04/12 01:52:18;;;;;;;5.68;4.88;;;;;;;8.39;100.00;100925.59;5228379;28;20539;-59
2022/04/12 01:54:49;;;;;;;6.95;5.55;;;;;;;8.34;100.00;100937.09;5228060;28;20040;-60
2022/04/12 01:57:20;;;;;;;6.15;5.70;;;;;;;8.11;100.00;100910.19;5228311;28;20017;-58
2022/04/12 01:59:50;;;;;;;6.72;6.20;;;;;;;8.23;100.00;100920.94;5228094;28;20048;-59
2022/04/12 02:02:20;;;;;;;7.97;7.15;;;;;;;8.14;100.00;100899.78;5228174;28;20024;-60
2022/04/12 02:04:51;;;;;;;13.95;7.20;;;;;;;8.23;100.00;100915.56;5227948;28;20028;-61
2022/04/12 02:07:22;;;;;;;6.65;6.05;;;;;;;8.16;100.00;100918.38;5246243;28;20024;-60
2022/04/12 02:09:52;;;;;;;5.57;5.28;;;;;;;8.12;100.00;100915.34;5228167;28;20028;-58
2022/04/12 02:12:23;;;;;;;6.03;5.63;;;;;;;7.90;100.00;100889.34;5227992;28;20047;-58
2022/04/12 02:14:53;;;;;;;6.68;6.18;;;;;;;8.04;100.00;100929.19;5247598;28;20466;-59
2022/04/12 02:17:24;;;;;;;6.38;6.07;;;;;;;7.95;100.00;100927.91;5232240;28;20024;-59
2022/04/12 02:19:54;;;;;;;7.43;6.82;;;;;;;7.87;100.00;100924.75;5232318;28;20389;-60
2022/04/12 02:22:25;;;;;;;7.93;7.22;;;;;;;7.79;100.00;100915.22;5232024;28;20024;-60
2022/04/12 02:24:55;;;;;;;6.93;6.30;;;;;;;7.77;100.00;100909.25;5231612;28;20055;-58
2022/04/12 02:27:57;;;;;;;6.97;6.15;;;;;;;7.74;100.00;100912.41;5232000;28;20063;-59
2022/04/12 02:30:27;;;;;;;7.43;6.13;;;;;;;7.72;100.00;100893.81;5231716;28;20036;-58
2022/04/12 02:32:58;;;;;;;5.57;5.28;;;;;;;7.75;100.00;100892.53;5231802;28;20031;-58
2022/04/12 02:35:29;;;;;;;7.53;6.93;;;;;;;7.75;100.00;100889.84;5231727;28;20348;-59
2022/04/12 02:37:59;;;;;;;6.50;6.13;;;;;;;7.75;100.00;100877.22;5231834;28;20138;-60
2022/04/12 02:40:30;;;;;;;6.10;5.53;;;;;;;7.68;100.00;100871.16;5231661;28;20030;-60
2022/04/12 02:43:00;;;;;;;8.30;7.70;;;;;;;7.73;100.00;100882.03;5231435;28;20067;-58
2022/04/12 02:45:31;;;;;;;8.65;5.03;;;;;;;7.72;100.00;100866.13;5231561;28;20086;-58
2022/04/12 02:48:01;;;;;;;7.70;7.03;;;;;;;7.75;100.00;100868.34;5231530;28;20106;-60
2022/04/12 02:50:32;;;;;;;7.78;7.18;;;;;;;7.71;100.00;100864.50;5231520;28;20025;-60
2022/04/12 02:53:02;;;;;;;5.38;4.97;;;;;;;7.58;100.00;100843.25;5231419;28;20040;-59
2022/04/12 02:55:33;;;;;;;6.40;5.90;;;;;;;7.67;100.00;100857.97;5231224;28;20024;-59
2022/04/12 02:58:03;;;;;;;7.05;6.47;;;;;;;7.63;100.00;100862.16;5231504;28;20025;-60
2022/04/12 03:00:34;;;;;;;6.70;6.15;;;;;;;7.55;100.00;100865.19;5231651;28;20071;-59
2022/04/12 03:03:04;;;;;;;5.95;5.55;;;;;;;7.36;100.00;100868.03;5231269;28;20086;-59
2022/04/12 03:05:35;;;;;;;6.88;6.28;;;;;;;7.43;100.00;100879.50;5231036;28;20176;-57
2022/04/12 03:08:05;;;;;;;7.47;6.88;;;;;;;7.28;100.00;100876.44;5231208;28;20020;-57
2022/04/12 03:10:36;;;;;;;5.80;5.38;;;;;;;7.32;100.00;100888.34;5231172;28;20036;-57
2022/04/12 03:13:06;;;;;;;6.57;6.20;;;;;;;7.25;100.00;100868.84;5214460;28;20088;-57
2022/04/12 03:15:36;;;;;;;7.63;7.05;;;;;;;7.28;100.00;100865.69;5231008;28;20493;-55
2022/04/12 03:18:07;;;;;;;6.13;5.63;;;;;;;7.31;100.00;100872.47;5231026;28;20024;-55
2022/04/12 03:20:37;;;;;;;7.15;6.63;;;;;;;7.34;100.00;100867.44;5230935;28;20070;-60
2022/04/12 03:23:08;;;;;;;6.68;6.18;;;;;;;7.37;100.00;100853.56;5230933;28;20478;-57
2022/04/12 03:25:39;;;;;;;7.82;7.13;;;;;;;7.38;100.00;100846.31;5230031;28;20489;-60
2022/04/12 03:28:10;;;;;;;6.05;5.60;;;;;;;7.41;100.00;100838.59;5230663;28;20509;-60
2022/04/12 03:30:40;;;;;;;5.32;5.03;;;;;;;7.38;100.00;100814.88;5255339;22;20037;-80
2022/04/12 03:33:11;;;;;;;6.30;5.97;;;;;;;7.48;100.00;100824.22;5253258;28;20029;-80
2022/04/12 03:35:43;;;;;;;6.68;6.28;;;;;;;7.49;100.00;100823.19;5257408;28;20021;-80
2022/04/12 03:38:14;;;;;;;6.70;6.22;;;;;;;7.48;100.00;100826.91;5257450;28;20040;-79
2022/04/12 03:40:46;;;;;;;7.82;6.60;;;;;;;7.47;100.00;100825.28;5257306;28;20483;-79
2022/04/12 03:43:17;;;;;;;5.15;4.75;;;;;;;7.45;100.00;100825.53;5256840;28;20442;-80
2022/04/12 03:45:47;;;;;;;6.70;6.25;;;;;;;7.21;100.00;100823.91;5255277;28;20021;-80
2022/04/12 03:48:18;;;;;;;6.90;6.25;;;;;;;7.22;100.00;100866.63;5257322;28;20387;-80
2022/04/12 03:50:48;;;;;;;7.03;6.32;;;;;;;6.93;100.00;100851.47;5256671;28;20027;-79
2022/04/12 03:53:18;;;;;;;8.10;7.32;;;;;;;6.91;100.00;100894.66;5257570;28;20060;-80
2022/04/12 03:55:49;;;;;;;7.50;6.97;;;;;;;6.64;100.00;100880.78;5256327;28;20029;-79
2022/04/12 03:58:20;;;;;;;6.50;5.85;;;;;;;6.56;100.00;100893.72;5256721;28;20098;-79
2022/04/12 04:00:50;;;;;;;6.50;5.75;;;;;;;6.46;100.00;100891.59;5256160;28;20060;-79
2022/04/12 04:03:21;;;;;;;8.20;6.13;;;;;;;6.43;100.00;100876.78;5256614;28;20051;-80
2022/04/12 04:05:51;;;;;;;6.97;6.57;;;;;;;6.38;100.00;100846.31;5255734;28;20078;-80
2022/04/12 04:08:22;;;;;;;12.38;6.03;;;;;;;6.63;100.00;100903.34;5257175;28;20055;-79
2022/04/12 04:10:52;;;;;;;7.65;7.00;;;;;;;6.58;100.00;100888.97;5256894;28;20078;-79
2022/04/12 04:13:24;;;;;;;6.65;6.15;;;;;;;6.46;100.00;100891.59;5256676;28;20032;-79
2022/04/12 04:15:55;;;;;;;7.10;6.65;;;;;;;6.25;100.00;100862.59;5255536;28;20044;-79
2022/04/12 04:18:27;;;;;;;6.70;6.28;;;;;;;6.25;100.00;100854.56;5256178;28;20055;-79
2022/04/12 04:20:57;;;;;;;7.60;6.40;;;;;;;6.52;100.00;100884.50;5256513;28;20024;-80
2022/04/12 04:23:28;;;;;;;6.45;6.10;;;;;;;6.56;100.00;100883.81;5270312;28;20023;-80
2022/04/12 04:25:59;;;;;;;6.90;6.47;;;;;;;6.40;100.00;100855.75;5256991;28;20028;-79
2022/04/12 04:28:30;;;;;;;6.60;6.10;;;;;;;6.58;100.00;100881.72;5256572;28;20028;-79
2022/04/12 04:31:00;;;;;;;6.95;6.50;;;;;;;6.42;100.00;100848.31;5256104;28;20029;-79
2022/04/12 04:33:31;;;;;;;5.95;5.55;;;;;;;6.67;100.00;100883.00;5256642;28;20020;-79
2022/04/12 04:36:01;;;;;;;8.85;8.25;;;;;;;6.61;100.00;100864.34;5256433;28;20031;-79
2022/04/12 04:38:32;;;;;;;8.18;7.68;;;;;;;6.60;100.00;100868.91;5256187;28;20025;-79
2022/04/12 04:41:02;;;;;;;7.32;6.88;;;;;;;6.61;100.00;100853.63;5238233;28;20024;-79
2022/04/12 04:43:33;;;;;;;7.20;6.70;;;;;;;6.78;100.00;100866.13;5256511;28;20032;-79
2022/04/12 04:46:05;;;;;;;6.28;5.88;;;;;;;6.90;100.00;100874.22;5256322;28;20013;-79
2022/04/12 04:48:35;;;;;;;7.32;6.82;;;;;;;6.95;100.00;100877.00;5272116;28;20024;-79
2022/04/12 04:51:06;;;;;;;10.73;7.28;;;;;;;6.98;100.00;100870.34;5255318;28;20066;-80
2022/04/12 04:53:37;;;;;;;6.75;5.97;;;;;;;6.81;100.00;100850.63;5254640;28;20079;-79
2022/04/12 04:56:07;;;;;;;9.00;7.28;;;;;;;6.89;100.00;100859.16;5257351;28;20025;-79
2022/04/12 04:58:38;;;;;;;31.05;7.70;;;;;;;6.99;100.00;100869.31;5257312;28;20032;-80
2022/04/12 05:01:08;;;;;;;7.82;7.32;;;;;;;6.98;100.00;100863.13;5254788;28;20048;-80
2022/04/12 05:03:39;;;;;;;5.68;5.40;;;;;;;6.95;100.00;100852.03;5273076;28;20023;-80
2022/04/12 05:06:09;;;;;;;6.75;6.15;;;;;;;6.82;100.00;100833.47;5257332;28;20433;-80
2022/04/12 05:08:40;;;;;;;7.28;6.65;;;;;;;7.04;100.00;100864.06;5256242;28;20028;-82
2022/04/12 05:11:10;;;;;;;5.78;5.35;;;;;;;7.03;100.00;100863.25;5254927;28;20044;-79
2022/04/12 05:13:41;;;;;;;6.60;6.20;;;;;;;7.03;100.00;100868.59;5258342;28;20505;-80
2022/04/12 05:16:11;;;;;;;7.43;7.03;;;;;;;7.00;100.00;100862.88;5257458;28;20083;-80
2022/04/12 05:18:42;;;;;;;7.20;5.90;;;;;;;6.76;100.00;100838.69;5254189;28;20024;-80
2022/04/12 05:21:12;;;;;;;7.70;7.10;;;;;;;7.00;100.00;100887.88;5253509;28;20104;-80
2022/04/12 05:23:43;;;;;;;8.32;5.90;;;;;;;6.77;100.00;100853.75;5255616;28;20032;-81
2022/04/12 05:26:13;;;;;;;7.20;6.70;;;;;;;6.99;100.00;100885.41;5255555;28;20495;-80
2022/04/12 05:28:44;;;;;;;8.35;7.72;;;;;;;6.90;100.00;100879.59;5254216;28;20025;-80
2022/04/12 05:31:14;;;;;;;8.57;7.78;;;;;;;6.91;100.00;100859.75;5255208;28;20024;-79
2022/04/12 05:33:45;;;;;;;8.45;7.78;;;;;;;7.00;100.00;100865.56;5237380;28;20030;-79
2022/04/12 05:36:16;;;;;;;8.38;7.75;;;;;;;7.04;100.00;100867.56;5255252;28;20024;-80
2022/04/12 05:38:46;;;;;;;7.15;6.53;;;;;;;6.99;100.00;100882.72;5256106;28;20028;-79
2022/04/12 05:41:17;;;;;;;6.88;6.45;;;;;;;6.98;100.00;100848.88;5265317;28;20021;-80
2022/04/12 05:43:47;;;;;;;7.28;6.75;;;;;;;7.15;100.00;100862.44;5255452;28;20020;-80
2022/04/12 05:46:18;;;;;;;8.00;7.50;;;;;;;6.94;100.00;100837.78;5237969;28;20483;-80
2022/04/12 05:48:48;;;;;;;8.05;7.45;;;;;;;7.21;100.00;100867.69;5237057;28;20028;-79
2022/04/12 05:51:19;;;;;;;7.22;6.63;;;;;;;6.99;100.00;100824.47;5254594;28;20051;-80
2022/04/12 05:53:49;;;;;;;7.93;6.95;;;;;;;7.23;100.00;100867.44;5257396;28;20127;-81
2022/04/12 05:56:19;;;;;;;7.93;7.18;;;;;;;7.19;100.00;100872.50;5257159;28;20028;-80
2022/04/12 05:58:50;;;;;;;7.90;7.18;;;;;;;7.21;100.00;100875.75;5240992;28;20051;-81
2022/04/12 06:01:20;;;;;;;8.57;8.02;;;;;;;7.20;100.00;100879.50;5257134;28;20020;-81
2022/04/12 06:03:51;;;;;;;10.60;8.68;;;;;;;7.17;100.00;100887.19;5258001;28;20092;-80
2022/04/12 06:06:21;;;;;;;8.52;7.75;;;;;;;7.17;100.00;100882.66;5257544;28;20035;-80
2022/04/12 06:08:51;;;;;;;9.30;8.40;;;;;;;7.24;100.00;100886.00;5258504;28;20071;-80
2022/04/12 06:11:22;;;;;;;7.57;6.90;;;;;;;7.36;100.00;100892.22;5258459;28;20480;-80
2022/04/12 06:13:52;;;;;;;8.00;7.30;;;;;;;7.44;100.00;100883.81;5255813;28;20024;-81
2022/04/12 06:16:23;;;;;;;12.43;8.40;;;;;;;7.62;100.00;100888.22;5257910;28;20020;-81
2022/04/12 06:18:53;;;;;;;7.78;7.03;;;;;;;7.45;100.00;100850.50;5257183;28;20093;-81
2022/04/12 06:21:24;;;;;;;9.63;8.45;;;;;;;7.80;100.00;100900.69;5253432;28;20102;-79
2022/04/12 06:23:55;;;;;;;8.35;7.70;;;;;;;7.74;100.00;100866.72;5253954;28;20020;-82
2022/04/12 06:26:25;;;;;;;8.90;8.07;;;;;;;8.05;100.00;100893.16;5252394;28;20108;-79
2022/04/12 06:28:56;;;;;;;7.75;7.18;;;;;;;8.09;100.00;100893.47;5252137;28;20495;-78
2022/04/12 06:31:26;;;;;;;9.15;7.80;;;;;;;8.13;100.00;100873.13;5251981;28;20491;-80
2022/04/12 06:33:56;;;;;;;10.23;6.35;;;;;;;8.36;100.00;100889.22;5250756;28;20442;-79
2022/04/12 06:36:27;;;;;;;7.25;6.53;;;;;;;8.41;100.00;100881.22;5250243;28;20028;-79
2022/04/12 06:38:57;;;;;;;5.50;5.18;;;;;;;8.46;100.00;100864.38;5252600;28;20080;-80
2022/04/12 06:41:28;;;;;;;18.40;7.63;;;;;;;8.72;100.00;100877.22;5233954;28;20029;-79
2022/04/12 06:43:58;;;;;;;8.63;7.85;;;;;;;8.84;100.00;100879.84;5251774;28;20032;-80
2022/04/12 06:46:29;;;;;;;15.07;7.43;;;;;;;9.12;100.00;100887.84;5250846;28;20107;-79
2022/04/12 06:48:59;;;;;;;8.75;6.82;;;;;;;9.10;100.00;100851.44;5252207;28;20020;-80
2022/04/12 06:51:29;;;;;;;22.20;7.43;;;;;;;9.36;100.00;100876.88;5232150;28;20028;-76
2022/04/12 06:54:00;;;;;;;7.72;7.03;;;;;;;9.51;100.00;100887.06;5249041;28;20498;-77
2022/04/12 06:56:30;;;;;;;6.00;5.55;;;;;;;9.68;100.00;100887.84;5249410;28;20028;-77
2022/04/12 06:59:00;;;;;;;14.35;6.85;;;;;;;9.71;100.00;100863.88;5250153;28;20127;-80
2022/04/12 07:01:31;;;;;;;7.20;6.53;;;;;;;10.01;100.00;100878.81;5253976;28;20048;-80
2022/04/12 07:04:01;;;;;;;5.80;5.38;;;;;;;10.17;100.00;100880.63;5255749;28;20024;-81
2022/04/12 07:06:32;;;;;;;13.52;6.68;;;;;;;10.20;100.00;100868.53;5256445;28;20055;-81
2022/04/12 07:09:05;;;;;;;10.05;6.20;;;;;;;10.33;100.00;100881.66;5257513;28;20051;-80
2022/04/12 07:11:35;;;;;;;6.07;5.68;;;;;;;10.51;100.00;100873.19;5238560;28;20493;-80
2022/04/12 07:14:06;;;;;;;4.82;4.43;;;;;;;10.77;100.00;100893.97;5254468;28;20025;-80
2022/04/12 07:16:36;;;;;;;5.72;5.20;;;;;;;10.98;100.00;100886.84;5257112;28;20020;-80
2022/04/12 07:19:07;;;;;;;5.72;5.22;;;;;;;11.06;100.00;100880.97;5260430;28;20029;-79
2022/04/12 07:21:37;;;;;;;2.92;2.80;;;;;;;11.14;100.00;100866.97;5257544;28;20025;-80
2022/04/12 07:24:09;;;;;;;4.63;4.32;;;;;;;11.44;100.00;100890.69;5238128;28;20526;-81
2022/04/12 07:26:39;;;;;;;6.35;4.80;;;;;;;11.60;100.00;100896.19;5257395;28;20099;-81
2022/04/12 07:29:10;;;;;;;5.00;4.30;;;;;;;11.74;100.00;100910.88;5254010;28;20037;-80
2022/04/12 07:31:40;;;;;;;4.68;4.45;;;;;;;11.85;100.00;100904.47;5254217;28;20100;-81
2022/04/12 07:34:11;;;;;;;3.92;3.65;;;;;;;12.02;100.00;100915.94;5239365;28;20024;-80
2022/04/12 07:36:47;;;;;;;4.43;4.13;;;;;;;12.13;100.00;100923.00;5256503;28;20027;-80
2022/04/12 07:39:17;;;;;;;21.05;4.32;;;;;;;12.11;100.00;100911.66;5238535;28;20021;-80
2022/04/12 07:41:48;;;;;;;4.43;4.13;;;;;;;12.24;100.00;100904.91;5237721;28;20043;-79
2022/04/12 07:44:20;;;;;;;3.60;3.40;;;;;;;12.32;100.00;100900.88;5253919;28;20028;-79
2022/04/12 07:46:50;;;;;;;3.55;3.35;;;;;;;12.30;100.00;100870.53;5255199;28;20029;-80
2022/04/12 07:49:21;;;;;;;4.45;4.15;;;;;;;12.64;100.00;100896.09;5235316;28;20028;-79
2022/04/12 07:51:51;;;;;;;4.07;3.78;;;;;;;12.87;100.00;100897.44;5251507;28;20017;-79
2022/04/12 07:54:22;;;;;;;5.10;3.50;;;;;;;12.91;100.00;100881.47;5251381;28;20021;-79
2022/04/12 07:56:52;;;;;;;3.40;3.30;;;;;;;12.99;100.00;100857.34;5252935;28;20029;-80
2022/04/12 07:59:22;;;;;;;3.45;3.20;;;;;;;13.48;100.00;100892.84;5255304;28;20495;-80
2022/04/12 08:01:53;;;;;;;2.97;2.78;;;;;;;13.72;100.00;100892.22;5253797;28;20107;-79
2022/04/12 08:04:23;;;;;;;4.30;3.97;;;;;;;13.65;100.00;100853.72;5255171;28;20029;-79
2022/04/12 08:06:54;;;;;;;2.85;2.70;;;;;;;14.03;100.00;100891.03;5256909;28;20029;-80
2022/04/12 08:09:24;;;;;;;3.25;3.05;;;;;;;14.07;100.00;100843.22;5257620;28;20021;-80
2022/04/12 08:11:55;;;;;;;4.47;3.03;;;;;;;14.37;100.00;100865.88;5256764;28;20047;-79
2022/04/12 08:14:25;;;;;;;5.18;3.30;;;;;;;14.44;100.00;100860.94;5255246;28;20028;-81
2022/04/12 08:16:56;;;;;;;2.88;2.75;;;;;;;14.54;100.00;100855.47;5256083;28;20025;-81
2022/04/12 08:19:26;;;;;;;5.00;4.60;;;;;;;14.77;100.00;100860.19;5256317;28;20035;-81
2022/04/12 08:22:00;;;;;;;3.53;3.33;;;;;;;14.84;100.00;100862.56;5254450;28;20095;-80
2022/04/12 08:24:31;;;;;;;4.20;2.83;;;;;;;14.99;100.00;100872.53;5255576;28;20372;-79
2022/04/12 08:27:01;;;;;;;3.50;3.28;;;;;;;15.07;100.00;100853.66;5254031;28;20082;-79
2022/04/12 08:29:32;;;;;;;3.53;3.28;;;;;;;15.03;100.00;100806.38;5255232;28;20027;-79
2022/04/12 08:32:02;;;;;;;3.78;3.47;;;;;;;15.45;100.00;100857.38;5253040;28;20043;-78
2022/04/12 08:34:33;;;;;;;5.00;4.60;;;;;;;15.74;100.00;100859.28;5254922;28;20028;-79
2022/04/12 08:37:05;;;;;;;3.08;2.88;;;;;;;15.87;100.00;100861.31;5256813;28;20028;-79
2022/04/12 08:39:35;;;;;;;3.75;3.55;;;;;;;16.02;100.00;100847.47;5256398;28;20024;-80
2022/04/12 08:42:06;;;;;;;4.18;3.28;;;;;;;16.08;100.00;100854.50;5257422;28;20032;-80
2022/04/12 08:44:37;;;;;;;3.38;3.17;;;;;;;16.02;100.00;100833.88;5257399;28;20028;-80
2022/04/12 08:47:08;;;;;;;3.25;3.13;;;;;;;16.14;100.00;100828.81;5272698;28;20093;-81
2022/04/12 08:49:43;;;;;;;5.50;3.42;;;;;;;16.33;100.00;100869.69;5255632;28;20403;-80
2022/04/12 08:52:14;;;;;;;3.08;2.97;;;;;;;16.36;100.00;100841.03;5256104;28;20021;-78
2022/04/12 08:54:45;;;;;;;4.35;4.00;;;;;;;16.54;100.00;100838.28;5256668;28;20029;-80
2022/04/12 08:57:15;;;;;;;5.70;3.47;;;;;;;16.68;100.00;100843.84;5256066;28;20032;-81
2022/04/12 08:59:48;;;;;;;7.28;2.90;;;;;;;16.69;97.83;100837.28;5255241;28;20032;-80
2022/04/12 09:02:18;;;;;;;2.65;2.45;;;;;;;16.78;98.89;100834.66;5254797;28;20093;-80
2022/04/12 09:04:48;;;;;;;2.90;2.78;;;;;;;16.87;97.61;100825.50;5254925;28;20490;-80
2022/04/12 09:07:25;;;;;;;3.40;3.10;;;;;;;16.66;96.82;100786.06;5255252;28;20016;-80
2022/04/12 09:10:05;;;;;;;2.88;2.78;;;;;;;16.92;96.37;100823.81;5255999;28;20024;-79
2022/04/12 09:12:35;;;;;;;4.05;3.65;;;;;;;16.96;98.03;100800.28;5257453;28;20017;-81
2022/04/12 09:15:11;;;;;;;8.00;4.07;;;;;;;17.26;97.92;100813.38;5255761;28;20289;-80
2022/04/12 09:17:44;;;;;;;3.60;3.40;;;;;;;17.21;95.97;100800.63;5253444;28;20031;-81
2022/04/12 09:20:19;;;;;;;3.17;2.83;;;;;;;17.36;95.96;100812.34;5251690;28;20039;-79
2022/04/12 09:22:50;;;;;;;11.48;4.13;;;;;;;17.30;96.16;100781.63;5251622;28;20059;-79
2022/04/12 09:25:21;;;;;;;3.05;2.85;;;;;;;17.57;96.52;100813.59;5251941;28;20025;-80
2022/04/12 09:27:51;;;;;;;4.35;3.90;;;;;;;17.74;93.94;100802.06;5255600;28;20021;-80
2022/04/12 09:30:22;;;;;;;5.03;2.78;;;;;;;17.82;93.11;100809.56;5274628;22;20060;-55
2022/04/12 09:32:52;;;;;;;8.27;3.00;;;;;;;17.88;92.87;100787.28;5266493;28;20012;-58
2022/04/12 09:35:23;;;;;;;3.72;3.38;;;;;;;18.22;93.83;100803.16;5244849;28;20132;-57
2022/04/12 09:37:54;;;;;;;3.30;3.13;;;;;;;18.30;91.58;100800.81;5244906;28;20028;-60
2022/04/12 09:40:25;;;;;;;5.65;3.20;;;;;;;18.57;95.52;100792.50;5245014;28;20028;-60
2022/04/12 09:42:59;;;;;;;3.20;3.05;;;;;;;18.76;91.07;100790.44;5246307;28;20478;-55
2022/04/12 09:45:33;;;;;;;4.22;2.97;;;;;;;18.82;90.04;100785.63;5245169;28;20044;-55
2022/04/12 09:48:08;;;;;;;3.78;2.55;;;;;;;18.98;90.42;100784.13;5245246;28;20024;-56
2022/04/12 09:50:39;;;;;;;3.53;2.67;;;;;;;19.20;87.80;100797.75;5245558;28;20032;-58
2022/04/12 09:53:10;;;;;;;7.38;3.38;;;;;;;19.20;86.20;100794.19;5245231;28;20130;-57
2022/04/12 09:55:43;;;;;;;3.33;3.03;;;;;;;19.19;86.80;100784.38;5254400;22;20044;-61
2022/04/12 09:58:16;;;;;;;4.47;4.07;;;;;;;19.38;89.96;100773.16;5205052;28;20029;-61
2022/04/12 10:00:47;;;;;;;16.52;4.93;;;;;;;19.29;87.47;100786.84;5221744;28;20467;-62
2022/04/12 10:03:19;;;;;;;4.82;3.67;;;;;;;19.46;85.66;100788.81;5210413;28;20032;-62
2022/04/12 10:05:50;;;;;;;9.95;4.20;;;;;;;19.54;86.38;100771.66;5225649;28;20025;-61
2022/04/12 10:08:22;;;;;;;5.47;4.15;;;;;;;19.85;88.04;100774.28;5235799;23;20502;-57
2022/04/12 10:10:53;;;;;;;7.40;3.72;;;;;;;19.80;83.72;100779.94;5223882;28;20027;-56
2022/04/12 10:13:24;;;;;;;2.38;2.28;;;;;;;19.62;82.79;100795.53;5231260;28;20115;-58
2022/04/12 10:15:55;;;;;;;2.72;2.53;;;;;;;19.69;85.83;100814.22;5227886;28;20020;-57
2022/04/12 10:18:28;;;;;;;3.03;2.72;;;;;;;20.01;87.43;100813.00;5227969;28;20424;-55
2022/04/12 10:21:00;;;;;;;3.67;3.40;;;;;;;20.13;83.83;100804.97;5244422;28;20030;-57
2022/04/12 10:23:31;;;;;;;4.22;3.92;;;;;;;20.05;85.89;100784.63;5228023;28;20044;-55
2022/04/12 10:26:02;;;;;;;3.28;3.08;;;;;;;20.19;83.49;100792.72;5227868;28;20081;-55
2022/04/12 10:28:34;;;;;;;7.88;3.55;;;;;;;20.30;83.58;100765.75;5227720;28;20467;-55
2022/04/12 10:31:14;;;;;;;3.67;2.92;;;;;;;20.53;85.84;100776.25;5228157;28;20029;-56
2022/04/12 10:33:52;;;;;;;10.57;4.55;;;;;;;20.83;86.55;100779.91;5228001;28;20029;-55
2022/04/12 10:36:23;;;;;;;8.20;5.03;;;;;;;20.97;83.79;100789.91;5247162;28;20020;-55
2022/04/12 10:38:53;;;;;;;9.25;4.72;;;;;;;20.89;85.14;100797.03;5232057;28;20379;-58
2022/04/12 10:41:30;;;;;;;3.97;3.78;;;;;;;20.90;83.14;100788.47;5232151;28;20432;-56
2022/04/12 10:44:01;;;;;;;4.90;3.47;;;;;;;20.96;81.58;100794.59;5231799;28;20032;-56
2022/04/12 10:46:51;;;;;;;11.93;3.40;;;;;;;20.81;81.06;100779.44;5231672;28;20032;-56
2022/04/12 10:49:22;;;;;;;6.35;5.70;;;;;;;20.73;79.66;100777.53;5231678;28;20024;-55
2022/04/12 10:51:59;;;;;;;4.10;3.75;;;;;;;20.97;82.96;100779.72;5231164;28;20028;-57
2022/04/12 10:54:33;;;;;;;10.50;2.80;;;;;;;21.00;81.46;100778.28;5231232;28;20405;-57
2022/04/12 10:57:16;;;;;;;6.13;3.60;;;;;;;21.07;80.93;100773.91;5231531;28;20378;-55
2022/04/12 10:59:50;;;;;;;3.53;3.33;;;;;;;21.02;78.53;100754.84;5231339;28;20032;-58
2022/04/12 11:02:21;;;;;;;3.63;2.65;;;;;;;21.08;80.25;100760.94;5231201;28;20553;-57
2022/04/12 11:04:52;;;;;;;3.50;3.30;;;;;;;21.22;78.39;100758.81;5249155;28;20031;-58
2022/04/12 11:07:33;;;;;;;6.25;4.35;;;;;;;21.39;80.23;100764.22;5231356;28;20111;-55
2022/04/12 11:10:12;;;;;;;4.50;4.15;;;;;;;21.56;78.38;100768.84;5231370;28;20024;-58
2022/04/12 11:12:44;;;;;;;5.85;3.17;;;;;;;21.42;77.67;100769.06;5230934;28;20016;-60
2022/04/12 11:15:28;;;;;;;4.70;3.25;;;;;;;21.49;80.53;100769.34;5230846;28;20556;-56
2022/04/12 11:18:11;;;;;;;3.65;3.22;;;;;;;21.51;76.44;100749.78;5230893;28;20079;-57
2022/04/12 11:20:46;;;;;;;3.50;3.30;;;;;;;21.51;76.92;100758.84;5230951;28;20056;-56
2022/04/12 11:23:16;;;;;;;4.13;3.35;;;;;;;21.56;79.06;100757.84;5230481;28;20028;-57
2022/04/12 11:25:51;;;;;;;4.03;3.75;;;;;;;21.61;75.39;100771.41;5230649;28;20028;-55
2022/04/12 11:28:23;;;;;;;7.97;3.70;;;;;;;21.53;78.78;100777.75;5230853;28;20026;-55
2022/04/12 11:30:58;;;;;;;4.63;3.72;;;;;;;21.65;77.57;100771.56;5230528;28;20039;-54
2022/04/12 11:33:30;;;;;;;4.10;3.83;;;;;;;21.40;74.25;100782.31;5214494;28;20059;-55
2022/04/12 11:36:02;;;;;;;4.63;3.95;;;;;;;21.41;76.43;100772.94;5230658;28;20016;-57
2022/04/12 11:38:32;;;;;;;8.23;3.78;;;;;;;21.48;76.26;100755.94;5230661;28;20048;-56
2022/04/12 11:41:03;;;;;;;6.75;3.40;;;;;;;21.63;76.63;100760.88;5230448;28;20122;-58
2022/04/12 11:43:34;;;;;;;6.70;3.15;;;;;;;21.90;77.10;100757.63;5246883;28;20486;-57